^^
Saratoga-Weather Station Historical Data
Daily Summary for February 2, 2020 Units:  Metric    English   Both
Daily Weekly Monthly Yearly Custom
  High: Low: Average:
Temperature: 8.8 °C 2.4 °C 5.6 °C
Dew Point: 6.1 °C 1.7 °C 4.4 °C
Humidity: 96% 79% 92%
Wind Speed: 28.8km/h 0km/h 4km/h
Wind Gust: 33.8km/h - -
Wind- - SSE
Pressure: 997.3 hPa 987.5 hPa -
Precipitation: 7.9 mm    
Historical Graphs
 
 
Tabular Data for February 2, 2020
Time Temperature Dew Point Pressure Wind Wind Speed Wind Gust Humidity Rainfall Rate (Hourly) solar
00:03 4.1 °C 3.2 °C 997.3 hPa ENE 4.7 km/h 9.7 km/h 94% 0.2 mm 0 W/m2
00:08 4.2 °C 3.3 °C 997.3 hPa NW 4.7 km/h 19.3 km/h 94% 0.0 mm 0 W/m2
00:13 4.3 °C 3.4 °C 997.3 hPa WNW 3.2 km/h 6.4 km/h 94% 0.0 mm 0 W/m2
00:18 4.3 °C 3.3 °C 997.3 hPa WNW 1.4 km/h 16.1 km/h 93% 0.0 mm 0 W/m2
00:23 4.3 °C 3.3 °C 997.3 hPa NNE 6.4 km/h 6.4 km/h 93% 0.0 mm 0 W/m2
00:28 4.3 °C 3.3 °C 997.3 hPa West 1.4 km/h 8 km/h 93% 0.0 mm 0 W/m2
00:33 4.4 °C 3.4 °C 997.3 hPa SSE 9.7 km/h 12.9 km/h 93% 0.0 mm 0 W/m2
00:38 4.4 °C 3.4 °C 997.3 hPa WNW 6.4 km/h 8 km/h 93% 0.0 mm 0 W/m2
00:43 4.5 °C 3.5 °C 997.3 hPa Calm   12.9 km/h 93% 0.0 mm 0 W/m2
00:48 4.6 °C 3.6 °C 997.3 hPa NNW 6.4 km/h 14.5 km/h 93% 0.0 mm 0 W/m2
00:53 4.6 °C 3.6 °C 997.3 hPa SSE 3.2 km/h 3.2 km/h 93% 0.0 mm 0 W/m2
00:58 4.7 °C 3.7 °C 997.3 hPa WNW 1.4 km/h 14.5 km/h 93% 0.0 mm 0 W/m2
01:03 4.7 °C 3.7 °C 997.3 hPa NW 4.7 km/h 6.4 km/h 93% 0.0 mm 0 W/m2
01:08 4.7 °C 3.7 °C 997.3 hPa West 3.2 km/h 3.2 km/h 93% 0.0 mm 0 W/m2
01:13 4.7 °C 3.7 °C 997.0 hPa Calm   3.2 km/h 93% 0.0 mm 0 W/m2
01:18 4.7 °C 3.7 °C 997.3 hPa WNW 3.2 km/h 4.8 km/h 93% 0.0 mm 0 W/m2
01:23 4.7 °C 3.7 °C 997.3 hPa Calm   3.2 km/h 93% 0.0 mm 0 W/m2
01:28 4.7 °C 3.7 °C 997.3 hPa North 3.2 km/h 6.4 km/h 93% 0.0 mm 0 W/m2
01:33 4.8 °C 3.8 °C 997.3 hPa ENE 3.2 km/h 8 km/h 93% 0.0 mm 0 W/m2
01:38 4.8 °C 3.8 °C 997.3 hPa NNE 1.4 km/h 1.6 km/h 93% 0.0 mm 0 W/m2
01:43 4.8 °C 3.8 °C 997.0 hPa Calm     93% 0.0 mm 0 W/m2
01:49 4.8 °C 3.8 °C 997.0 hPa Calm   3.2 km/h 93% 0.0 mm 0 W/m2
01:54 4.8 °C 3.8 °C 997.0 hPa ENE 4.7 km/h 8 km/h 93% 0.0 mm 0 W/m2
01:59 4.8 °C 3.8 °C 997.0 hPa NE 3.2 km/h 3.2 km/h 93% 0.0 mm 0 W/m2
02:04 4.8 °C 3.8 °C 997.0 hPa ENE 3.2 km/h 4.8 km/h 93% 0.0 mm 0 W/m2
02:09 4.8 °C 3.8 °C 997.0 hPa North 3.2 km/h 4.8 km/h 93% 0.0 mm 0 W/m2
02:14 4.8 °C 3.8 °C 996.6 hPa NNE 1.4 km/h 4.8 km/h 93% 0.0 mm 0 W/m2
02:19 4.8 °C 3.8 °C 997.0 hPa ENE 1.4 km/h 3.2 km/h 93% 0.0 mm 0 W/m2
02:24 4.8 °C 3.8 °C 997.0 hPa East 1.4 km/h 6.4 km/h 93% 0.0 mm 0 W/m2
02:29 4.8 °C 3.8 °C 996.6 hPa NE 3.2 km/h 4.8 km/h 93% 0.0 mm 0 W/m2
02:34 4.8 °C 3.8 °C 996.3 hPa North 3.2 km/h 8 km/h 93% 0.0 mm 0 W/m2
02:39 4.8 °C 3.6 °C 996.3 hPa East 4.7 km/h 4.8 km/h 92% 0.0 mm 0 W/m2
02:44 4.8 °C 3.6 °C 996.3 hPa East 1.4 km/h 6.4 km/h 92% 0.0 mm 0 W/m2
02:49 4.8 °C 3.6 °C 995.9 hPa NE 1.4 km/h 6.4 km/h 92% 0.0 mm 0 W/m2
02:54 4.8 °C 3.6 °C 995.9 hPa East 3.2 km/h 6.4 km/h 92% 0.0 mm 0 W/m2
02:59 4.8 °C 3.6 °C 995.9 hPa Calm   4.8 km/h 92% 0.0 mm 0 W/m2
03:04 4.8 °C 3.6 °C 995.6 hPa ENE 3.2 km/h 3.2 km/h 92% 0.0 mm 0 W/m2
03:09 4.8 °C 3.6 °C 995.6 hPa ENE 1.4 km/h 4.8 km/h 92% 0.0 mm 0 W/m2
03:14 4.7 °C 3.7 °C 995.3 hPa Calm   3.2 km/h 93% 0.0 mm 0 W/m2
03:19 4.6 °C 3.4 °C 995.3 hPa ESE 6.4 km/h 8 km/h 92% 0.0 mm 0 W/m2
03:24 4.5 °C 3.5 °C 995.3 hPa ENE 3.2 km/h 4.8 km/h 93% 0.0 mm 0 W/m2
03:29 4.5 °C 3.5 °C 995.3 hPa NNE 4.7 km/h 6.4 km/h 93% 0.0 mm 0 W/m2
03:34 4.4 °C 3.4 °C 995.3 hPa NE 1.4 km/h 6.4 km/h 93% 0.0 mm 0 W/m2
03:39 4.4 °C 3.4 °C 994.9 hPa ENE 3.2 km/h 6.4 km/h 93% 0.0 mm 0 W/m2
03:44 4.4 °C 3.4 °C 994.9 hPa ENE 1.4 km/h 6.4 km/h 93% 0.0 mm 0 W/m2
03:49 4.4 °C 3.4 °C 994.9 hPa Calm   1.6 km/h 93% 0.0 mm 0 W/m2
03:54 4.4 °C 3.4 °C 994.6 hPa Calm   4.8 km/h 93% 0.0 mm 0 W/m2
03:59 4.3 °C 3.3 °C 994.6 hPa Calm   3.2 km/h 93% 0.0 mm 0 W/m2
04:04 4.3 °C 3.3 °C 994.2 hPa ESE 3.2 km/h 3.2 km/h 93% 0.0 mm 0 W/m2
04:09 4.1 °C 3.1 °C 994.2 hPa Calm   3.2 km/h 93% 0.0 mm 0 W/m2
04:14 3.8 °C 2.8 °C 994.2 hPa Calm   1.6 km/h 93% 0.0 mm 0 W/m2
04:19 3.6 °C 2.6 °C 993.9 hPa ESE 1.4 km/h 3.2 km/h 93% 0.0 mm 0 W/m2
04:25 3.4 °C 2.4 °C 993.9 hPa Calm     93% 0.0 mm 0 W/m2
04:30 3.2 °C 2.2 °C 993.6 hPa ESE 3.2 km/h 3.2 km/h 93% 0.0 mm 0 W/m2
04:35 3.1 °C 2.1 °C 993.6 hPa East 1.4 km/h 3.2 km/h 93% 0.0 mm 0 W/m2
04:40 3.1 °C 2.2 °C 993.6 hPa SE 1.4 km/h 3.2 km/h 94% 0.0 mm 0 W/m2
04:45 3 °C 2.1 °C 993.6 hPa Calm   1.6 km/h 94% 0.0 mm 0 W/m2
04:50 3 °C 2.1 °C 993.6 hPa ENE 1.4 km/h 4.8 km/h 94% 0.0 mm 0 W/m2
04:55 3 °C 2.1 °C 993.2 hPa SE 1.4 km/h 1.6 km/h 94% 0.0 mm 0 W/m2
05:00 2.9 °C 2 °C 993.2 hPa Calm   4.8 km/h 94% 0.0 mm 0 W/m2
05:05 2.8 °C 1.9 °C 993.2 hPa Calm   1.6 km/h 94% 0.0 mm 0 W/m2
05:10 2.7 °C 1.8 °C 993.2 hPa NNW 3.2 km/h 3.2 km/h 94% 0.0 mm 0 W/m2
05:15 2.7 °C 1.8 °C 992.9 hPa Calm   1.6 km/h 94% 0.0 mm 0 W/m2
05:20 2.6 °C 1.9 °C 992.9 hPa NE 1.4 km/h 3.2 km/h 95% 0.0 mm 0 W/m2
05:25 2.6 °C 1.9 °C 992.9 hPa Calm     95% 0.0 mm 0 W/m2
05:30 2.6 °C 1.9 °C 992.9 hPa Calm   1.6 km/h 95% 0.0 mm 0 W/m2
05:35 2.7 °C 2 °C 992.9 hPa ENE 1.4 km/h 4.8 km/h 95% 0.0 mm 0 W/m2
05:40 3 °C 2.4 °C 992.9 hPa ENE 4.7 km/h 8 km/h 96% 0.0 mm 0 W/m2
05:45 3.2 °C 2.6 °C 992.9 hPa ENE 3.2 km/h 3.2 km/h 96% 0.0 mm 0 W/m2
05:50 3.3 °C 2.6 °C 992.5 hPa Calm   8 km/h 95% 0.0 mm 0 W/m2
05:55 3.4 °C 2.7 °C 992.5 hPa ENE 3.2 km/h 4.8 km/h 95% 0.0 mm 0 W/m2
06:00 3.4 °C 2.7 °C 992.5 hPa Calm   6.4 km/h 95% 0.0 mm 0 W/m2
06:05 3.4 °C 2.7 °C 992.5 hPa NNE 1.4 km/h 3.2 km/h 95% 0.0 mm 0 W/m2
06:10 3.4 °C 2.5 °C 992.2 hPa Calm     94% 0.0 mm 0 W/m2
06:15 3.3 °C 2.6 °C 992.2 hPa NE 4.7 km/h 4.8 km/h 95% 0.0 mm 0 W/m2
06:20 3.2 °C 2.5 °C 992.2 hPa NE 1.4 km/h 3.2 km/h 95% 0.0 mm 0 W/m2
06:25 3 °C 2.1 °C 992.2 hPa NE 1.4 km/h 4.8 km/h 94% 0.0 mm 0 W/m2
06:30 2.9 °C 2.2 °C 991.9 hPa ENE 1.4 km/h 4.8 km/h 95% 0.0 mm 0 W/m2
06:35 2.9 °C 2.2 °C 991.9 hPa North 1.4 km/h 4.8 km/h 95% 0.0 mm 0 W/m2
06:40 2.9 °C 2.2 °C 991.9 hPa Calm     95% 0.0 mm 0 W/m2
06:45 2.7 °C 1.8 °C 991.5 hPa Calm   4.8 km/h 94% 0.0 mm 0 W/m2
06:50 2.6 °C 1.7 °C 991.5 hPa North 1.4 km/h 1.6 km/h 94% 0.0 mm 0 W/m2
06:55 2.5 °C 1.8 °C 991.5 hPa Calm   1.6 km/h 95% 0.0 mm 0 W/m2
07:00 2.4 °C 1.7 °C 991.5 hPa Calm   1.6 km/h 95% 0.0 mm 0 W/m2
07:05 2.4 °C 1.7 °C 991.5 hPa NW 1.4 km/h 3.2 km/h 95% 0.0 mm 0 W/m2
07:10 2.4 °C 1.7 °C 991.2 hPa WNW 1.4 km/h 3.2 km/h 95% 0.0 mm 5 W/m2
07:15 2.4 °C 1.7 °C 991.2 hPa WNW 1.4 km/h 1.6 km/h 95% 0.0 mm 0 W/m2
07:20 2.5 °C 1.8 °C 991.2 hPa NNW 1.4 km/h 3.2 km/h 95% 0.0 mm 0 W/m2
07:25 2.5 °C 1.8 °C 991.2 hPa ENE 1.4 km/h 3.2 km/h 95% 0.0 mm 7 W/m2
07:30 2.6 °C 1.9 °C 991.2 hPa Calm   3.2 km/h 95% 0.0 mm 9 W/m2
07:35 2.6 °C 1.9 °C 991.2 hPa ENE 3.2 km/h 4.8 km/h 95% 0.0 mm 12 W/m2
07:40 2.6 °C 2 °C 990.9 hPa ENE 6.4 km/h 8 km/h 96% 0.0 mm 16 W/m2
07:45 3 °C 2.4 °C 991.2 hPa NNE 9.7 km/h 9.7 km/h 96% 0.0 mm 18 W/m2
07:50 3.2 °C 2.6 °C 991.2 hPa East 3.2 km/h 6.4 km/h 96% 0.0 mm 19 W/m2
07:55 3.3 °C 2.7 °C 991.2 hPa ENE 6.4 km/h 8 km/h 96% 0.0 mm 26 W/m2
08:00 3.4 °C 2.8 °C 990.9 hPa ENE 7.9 km/h 14.5 km/h 96% 0.0 mm 26 W/m2
08:05 3.6 °C 2.9 °C 990.9 hPa NE 4.7 km/h 9.7 km/h 95% 0.0 mm 32 W/m2
08:10 3.7 °C 3 °C 990.9 hPa NE 6.4 km/h 8 km/h 95% 0.0 mm 39 W/m2
08:15 3.8 °C 3.1 °C 990.9 hPa ENE 4.7 km/h 9.7 km/h 95% 0.0 mm 51 W/m2
08:20 3.9 °C 3.2 °C 990.9 hPa NE 7.9 km/h 11.3 km/h 95% 0.0 mm 63 W/m2
08:25 4 °C 3.1 °C 990.9 hPa East 11.1 km/h 11.3 km/h 94% 0.0 mm 86 W/m2
08:30 4.2 °C 3.3 °C 990.9 hPa ENE 7.9 km/h 8 km/h 94% 0.0 mm 104 W/m2
08:35 4.2 °C 3.3 °C 990.9 hPa ENE 6.4 km/h 9.7 km/h 94% 0.0 mm 113 W/m2
08:40 4.3 °C 3.4 °C 990.9 hPa NE 1.4 km/h 3.2 km/h 94% 0.0 mm 142 W/m2
08:46 4.4 °C 3.5 °C 990.9 hPa NNE 1.4 km/h 9.7 km/h 94% 0.0 mm 162 W/m2
08:51 4.5 °C 3.6 °C 990.9 hPa ENE 3.2 km/h 4.8 km/h 94% 0.0 mm 169 W/m2
08:56 4.6 °C 3.6 °C 990.9 hPa NE 4.7 km/h 8 km/h 93% 0.0 mm 192 W/m2
09:01 4.8 °C 3.8 °C 990.9 hPa ENE 3.2 km/h 6.4 km/h 93% 0.0 mm 146 W/m2
09:06 4.9 °C 3.9 °C 990.9 hPa East 1.4 km/h 8 km/h 93% 0.0 mm 137 W/m2
09:11 5.1 °C 4.1 °C 990.9 hPa ENE 4.7 km/h 4.8 km/h 93% 0.0 mm 171 W/m2
09:16 5.3 °C 4.1 °C 990.9 hPa Calm   6.4 km/h 92% 0.0 mm 158 W/m2
09:21 5.4 °C 4.2 °C 990.9 hPa NNE 1.4 km/h 4.8 km/h 92% 0.0 mm 172 W/m2
09:26 5.6 °C 4.4 °C 990.9 hPa East 3.2 km/h 4.8 km/h 92% 0.0 mm 221 W/m2
09:31 5.8 °C 4.4 °C 990.5 hPa East 1.4 km/h 4.8 km/h 91% 0.0 mm 178 W/m2
09:36 6.1 °C 4.7 °C 990.5 hPa Calm   1.6 km/h 91% 0.0 mm 265 W/m2
09:41 6.5 °C 5 °C 990.2 hPa Calm   9.7 km/h 90% 0.0 mm 299 W/m2
09:46 6.8 °C 5.1 °C 990.2 hPa NNE 1.4 km/h 4.8 km/h 89% 0.0 mm 338 W/m2
09:51 7.2 °C 5 °C 989.8 hPa East 6.4 km/h 12.9 km/h 86% 0.0 mm 322 W/m2
09:56 7.3 °C 4.9 °C 989.8 hPa East 3.2 km/h 9.7 km/h 85% 0.0 mm 172 W/m2
10:02 7.3 °C 4.9 °C 989.8 hPa ESE 3.2 km/h 12.9 km/h 85% 0.0 mm 162 W/m2
10:07 7.2 °C 4.7 °C 989.8 hPa East 4.7 km/h 12.9 km/h 84% 0.0 mm 281 W/m2
10:12 7.3 °C 4.8 °C 989.5 hPa ESE 3.2 km/h 6.4 km/h 84% 0.0 mm 279 W/m2
10:17 7.5 °C 5 °C 989.5 hPa East 4.7 km/h 11.3 km/h 84% 0.0 mm 302 W/m2
10:22 7.7 °C 5.2 °C 989.5 hPa ESE 6.4 km/h 9.7 km/h 84% 0.0 mm 322 W/m2
10:27 7.8 °C 5.1 °C 989.2 hPa ENE 7.9 km/h 14.5 km/h 83% 0.0 mm 302 W/m2
10:32 7.8 °C 4.7 °C 989.2 hPa East 4.7 km/h 9.7 km/h 81% 0.0 mm 362 W/m2
10:37 8 °C 4.9 °C 989.2 hPa NE 6.4 km/h 6.4 km/h 81% 0.0 mm 385 W/m2
10:42 8.2 °C 5.5 °C 989.2 hPa SW 1.4 km/h 9.7 km/h 83% 0.0 mm 396 W/m2
10:47 8.4 °C 5.3 °C 989.2 hPa ESE 4.7 km/h 6.4 km/h 81% 0.0 mm 332 W/m2
10:52 8.3 °C 5.1 °C 989.2 hPa East 1.4 km/h 6.4 km/h 80% 0.0 mm 388 W/m2
10:57 8.5 °C 5.4 °C 989.2 hPa ENE 3.2 km/h 6.4 km/h 81% 0.0 mm 445 W/m2
11:02 8.7 °C 5.4 °C 989.2 hPa NE 4.7 km/h 6.4 km/h 80% 0.0 mm 399 W/m2
11:07 8.7 °C 5.4 °C 988.8 hPa East 4.7 km/h 6.4 km/h 80% 0.0 mm 385 W/m2
11:12 8.8 °C 5.4 °C 988.8 hPa ENE 4.7 km/h 11.3 km/h 79% 0.0 mm 288 W/m2
11:17 8.6 °C 5.2 °C 988.8 hPa East 6.4 km/h 9.7 km/h 79% 0.0 mm 230 W/m2
11:22 8.4 °C 5.2 °C 988.8 hPa East 1.4 km/h 6.4 km/h 80% 0.0 mm 163 W/m2
11:27 8.4 °C 5.2 °C 988.5 hPa East 3.2 km/h 9.7 km/h 80% 0.0 mm 185 W/m2
11:32 8.4 °C 5.3 °C 988.5 hPa Calm   3.2 km/h 81% 0.0 mm 139 W/m2
11:37 8.4 °C 5.2 °C 988.5 hPa East 3.2 km/h 4.8 km/h 80% 0.0 mm 148 W/m2
11:42 8.4 °C 5.3 °C 988.1 hPa ENE 3.2 km/h 4.8 km/h 81% 0.0 mm 195 W/m2
11:47 8.5 °C 5.4 °C 988.1 hPa ESE 1.4 km/h 3.2 km/h 81% 0.0 mm 211 W/m2
11:52 8.6 °C 5.5 °C 988.1 hPa East 3.2 km/h 3.2 km/h 81% 0.0 mm 186 W/m2
11:57 8.6 °C 5.3 °C 988.1 hPa East 4.7 km/h 11.3 km/h 80% 0.0 mm 200 W/m2
12:03 8.6 °C 5.3 °C 987.8 hPa East 6.4 km/h 8 km/h 80% 0.0 mm 185 W/m2
12:08 8.5 °C 5.2 °C 987.8 hPa ESE 1.4 km/h 4.8 km/h 80% 0.0 mm 149 W/m2
12:13 8.5 °C 5.2 °C 987.8 hPa ESE 1.4 km/h 4.8 km/h 80% 0.0 mm 118 W/m2
12:18 8.4 °C 5.2 °C 987.8 hPa East 1.4 km/h 4.8 km/h 80% 0.0 mm 95 W/m2
12:23 8.4 °C 5.2 °C 987.8 hPa East 1.4 km/h 8 km/h 80% 0.0 mm 104 W/m2
12:28 8.3 °C 5.1 °C 987.8 hPa SE 4.7 km/h 9.7 km/h 80% 0.0 mm 104 W/m2
12:33 8.3 °C 5.4 °C 987.8 hPa ESE 1.4 km/h 3.2 km/h 82% 0.0 mm 111 W/m2
12:38 8.3 °C 5.6 °C 987.5 hPa ESE 4.7 km/h 6.4 km/h 83% 0.0 mm 121 W/m2
12:43 8.3 °C 5.8 °C 987.5 hPa Calm     84% 0.0 mm 98 W/m2
12:48 8.2 °C 5.5 °C 987.5 hPa ESE 3.2 km/h 9.7 km/h 83% 0.0 mm 97 W/m2
12:53 8.1 °C 5.6 °C 987.5 hPa SE 1.4 km/h 3.2 km/h 84% 0.0 mm 81 W/m2
12:58 7.9 °C 5.4 °C 987.5 hPa Calm   9.7 km/h 84% 0.0 mm 84 W/m2
13:03 7.8 °C 5.3 °C 987.5 hPa Calm   4.8 km/h 84% 0.0 mm 88 W/m2
13:08 7.8 °C 5.6 °C 987.5 hPa Calm   1.6 km/h 86% 0.2 mm 81 W/m2
13:13 7.8 °C 5.6 °C 987.5 hPa Calm   1.6 km/h 86% 0.2 mm 88 W/m2
13:18 7.7 °C 5.7 °C 987.5 hPa Calm   4.8 km/h 87% 0.2 mm 86 W/m2
13:23 7.6 °C 5.7 °C 987.5 hPa Calm   3.2 km/h 88% 0.5 mm 95 W/m2
13:28 7.6 °C 5.9 °C 987.5 hPa Calm   1.6 km/h 89% 0.5 mm 91 W/m2
13:34 7.5 °C 5.8 °C 987.5 hPa Calm   3.2 km/h 89% 0.5 mm 105 W/m2
13:39 7.5 °C 6 °C 987.5 hPa Calm   3.2 km/h 90% 0.5 mm 91 W/m2
13:44 7.5 °C 6 °C 987.5 hPa Calm     90% 0.8 mm 72 W/m2
13:49 7.5 °C 6 °C 987.5 hPa East 1.4 km/h 1.6 km/h 90% 0.8 mm 65 W/m2
13:54 7.4 °C 6 °C 987.5 hPa East 1.4 km/h 4.8 km/h 91% 1.0 mm 67 W/m2
13:59 7.4 °C 6 °C 987.5 hPa East 3.2 km/h 3.2 km/h 91% 1.3 mm 84 W/m2
14:04 7.3 °C 6.1 °C 987.8 hPa East 3.2 km/h 3.2 km/h 92% 1.3 mm 84 W/m2
14:09 7.3 °C 6.1 °C 987.8 hPa East 3.2 km/h 4.8 km/h 92% 1.3 mm 79 W/m2
14:14 7.2 °C 6 °C 987.8 hPa East 1.4 km/h 4.8 km/h 92% 1.5 mm 81 W/m2
14:19 7.2 °C 6.1 °C 987.8 hPa ESE 4.7 km/h 11.3 km/h 93% 1.3 mm 65 W/m2
14:24 7.1 °C 6 °C 987.8 hPa ENE 3.2 km/h 6.4 km/h 93% 1.5 mm 77 W/m2
14:29 7.1 °C 6 °C 987.8 hPa ESE 4.7 km/h 6.4 km/h 93% 1.5 mm 74 W/m2
14:34 7 °C 5.9 °C 987.8 hPa East 3.2 km/h 6.4 km/h 93% 1.5 mm 67 W/m2
14:39 6.9 °C 6 °C 987.8 hPa East 4.7 km/h 4.8 km/h 94% 1.8 mm 54 W/m2
14:44 6.9 °C 6 °C 987.8 hPa Calm   3.2 km/h 94% 1.8 mm 51 W/m2
14:49 6.9 °C 6 °C 987.8 hPa East 3.2 km/h 4.8 km/h 94% 2.0 mm 39 W/m2
14:54 6.9 °C 6 °C 987.8 hPa East 4.7 km/h 6.4 km/h 94% 2.0 mm 42 W/m2
14:59 6.9 °C 6 °C 987.8 hPa Calm   3.2 km/h 94% 2.3 mm 35 W/m2
15:04 6.8 °C 5.9 °C 987.8 hPa NE 1.4 km/h 3.2 km/h 94% 2.5 mm 58 W/m2
15:09 6.8 °C 5.9 °C 988.1 hPa Calm   3.2 km/h 94% 2.5 mm 69 W/m2
15:14 6.7 °C 5.8 °C 988.1 hPa ESE 1.4 km/h 3.2 km/h 94% 2.3 mm 72 W/m2
15:19 6.6 °C 5.7 °C 988.1 hPa South 1.4 km/h 4.8 km/h 94% 2.5 mm 74 W/m2
15:24 6.6 °C 5.9 °C 988.1 hPa SE 1.4 km/h 6.4 km/h 95% 2.3 mm 72 W/m2
15:29 6.5 °C 5.8 °C 988.1 hPa Calm   3.2 km/h 95% 2.3 mm 62 W/m2
15:34 6.5 °C 5.8 °C 988.1 hPa ESE 4.7 km/h 4.8 km/h 95% 2.3 mm 60 W/m2
15:39 6.5 °C 5.8 °C 988.1 hPa East 3.2 km/h 3.2 km/h 95% 2.3 mm 42 W/m2
15:44 6.5 °C 5.8 °C 988.1 hPa East 1.4 km/h 3.2 km/h 95% 2.0 mm 37 W/m2
15:49 6.5 °C 5.8 °C 988.1 hPa ENE 1.4 km/h 3.2 km/h 95% 2.0 mm 39 W/m2
15:54 6.4 °C 5.7 °C 988.1 hPa ENE 1.4 km/h 3.2 km/h 95% 1.8 mm 33 W/m2
15:59 6.4 °C 5.7 °C 988.1 hPa ESE 1.4 km/h 6.4 km/h 95% 1.5 mm 40 W/m2
16:04 6.4 °C 5.7 °C 988.1 hPa ESE 1.4 km/h 3.2 km/h 95% 1.3 mm 44 W/m2
16:09 6.4 °C 5.7 °C 988.5 hPa Calm   6.4 km/h 95% 1.3 mm 44 W/m2
16:14 6.4 °C 5.7 °C 988.5 hPa ESE 1.4 km/h 1.6 km/h 95% 1.3 mm 46 W/m2
16:19 6.4 °C 5.7 °C 988.5 hPa SE 1.4 km/h 4.8 km/h 95% 1.3 mm 40 W/m2
16:24 6.4 °C 5.7 °C 988.5 hPa Calm     95% 1.3 mm 32 W/m2
16:29 6.4 °C 5.7 °C 988.5 hPa Calm   1.6 km/h 95% 1.0 mm 30 W/m2
16:34 6.4 °C 5.7 °C 988.5 hPa SE 1.4 km/h 1.6 km/h 95% 1.3 mm 23 W/m2
16:39 6.4 °C 5.7 °C 988.5 hPa SE 1.4 km/h 1.6 km/h 95% 1.0 mm 21 W/m2
16:44 6.3 °C 5.6 °C 988.5 hPa SE 1.4 km/h 1.6 km/h 95% 1.3 mm 21 W/m2
16:49 6.3 °C 5.6 °C 988.5 hPa SE 1.4 km/h 1.6 km/h 95% 1.0 mm 21 W/m2
16:54 6.3 °C 5.6 °C 988.5 hPa Calm   3.2 km/h 95% 1.3 mm 18 W/m2
16:59 6.3 °C 5.6 °C 988.8 hPa ESE 1.4 km/h 3.2 km/h 95% 1.0 mm 12 W/m2
17:04 6.3 °C 5.6 °C 988.8 hPa Calm     95% 1.0 mm 9 W/m2
17:10 6.3 °C 5.6 °C 988.8 hPa Calm   3.2 km/h 95% 1.0 mm 11 W/m2
17:15 6.3 °C 5.6 °C 988.8 hPa Calm     95% 1.0 mm 14 W/m2
17:20 6.3 °C 5.6 °C 989.2 hPa Calm     95% 0.8 mm 14 W/m2
17:25 6.3 °C 5.6 °C 989.2 hPa Calm     95% 0.8 mm 12 W/m2
17:30 6.3 °C 5.6 °C 989.2 hPa Calm     95% 0.8 mm 12 W/m2
17:35 6.3 °C 5.6 °C 989.2 hPa Calm     95% 0.8 mm 11 W/m2
17:40 6.3 °C 5.6 °C 989.2 hPa Calm     95% 0.8 mm 11 W/m2
17:45 6.3 °C 5.6 °C 989.5 hPa Calm     95% 0.5 mm 9 W/m2
17:50 6.3 °C 5.6 °C 989.5 hPa Calm     95% 0.8 mm 7 W/m2
17:55 6.3 °C 5.6 °C 989.5 hPa Calm     95% 0.5 mm 7 W/m2
18:00 6.3 °C 5.6 °C 989.8 hPa Calm     95% 0.5 mm 5 W/m2
18:05 6.3 °C 5.6 °C 989.8 hPa Calm     95% 0.5 mm 0 W/m2
18:10 6.2 °C 5.5 °C 989.8 hPa SSW 1.4 km/h 3.2 km/h 95% 0.5 mm 0 W/m2
18:15 6.2 °C 5.5 °C 989.8 hPa SW 3.2 km/h 4.8 km/h 95% 0.5 mm 0 W/m2
18:20 6.2 °C 5.5 °C 989.8 hPa Calm   3.2 km/h 95% 0.5 mm 0 W/m2
18:25 6.2 °C 5.5 °C 990.2 hPa SW 1.4 km/h 1.6 km/h 95% 0.5 mm 0 W/m2
18:30 6.2 °C 5.5 °C 990.2 hPa WSW 3.2 km/h 3.2 km/h 95% 0.5 mm 0 W/m2
18:35 6.2 °C 5.5 °C 990.2 hPa WSW 1.4 km/h 3.2 km/h 95% 0.5 mm 0 W/m2
18:40 6.2 °C 5.5 °C 990.5 hPa West 1.4 km/h 1.6 km/h 95% 0.5 mm 0 W/m2
18:45 6.2 °C 5.5 °C 990.5 hPa West 3.2 km/h 4.8 km/h 95% 0.8 mm 0 W/m2
18:50 6.2 °C 5.5 °C 990.5 hPa WNW 3.2 km/h 4.8 km/h 95% 0.5 mm 0 W/m2
18:55 6.1 °C 5.4 °C 990.5 hPa NW 4.7 km/h 6.4 km/h 95% 0.5 mm 0 W/m2
19:00 6.1 °C 5.4 °C 990.9 hPa WNW 4.7 km/h 6.4 km/h 95% 0.5 mm 0 W/m2
19:05 6 °C 5.3 °C 990.9 hPa WNW 4.7 km/h 11.3 km/h 95% 0.8 mm 0 W/m2
19:10 5.9 °C 5.2 °C 990.9 hPa WNW 3.2 km/h 4.8 km/h 95% 0.5 mm 0 W/m2
19:15 5.8 °C 5.1 °C 990.9 hPa West 6.4 km/h 11.3 km/h 95% 0.5 mm 0 W/m2
19:20 5.8 °C 5.1 °C 990.9 hPa WNW 6.4 km/h 9.7 km/h 95% 0.5 mm 0 W/m2
19:25 5.8 °C 5.1 °C 990.9 hPa WNW 6.4 km/h 6.4 km/h 95% 0.5 mm 0 W/m2
19:30 5.8 °C 5.1 °C 991.2 hPa WNW 4.7 km/h 4.8 km/h 95% 0.5 mm 0 W/m2
19:35 5.7 °C 5 °C 991.2 hPa West 4.7 km/h 9.7 km/h 95% 0.5 mm 0 W/m2
19:40 5.7 °C 5 °C 991.2 hPa WSW 3.2 km/h 6.4 km/h 95% 0.5 mm 0 W/m2
19:45 5.7 °C 5 °C 991.2 hPa WNW 6.4 km/h 12.9 km/h 95% 0.5 mm 0 W/m2
19:50 5.6 °C 4.9 °C 991.2 hPa West 11.1 km/h 12.9 km/h 95% 0.5 mm 0 W/m2
19:55 5.6 °C 4.9 °C 991.2 hPa West 4.7 km/h 11.3 km/h 95% 0.5 mm 0 W/m2
20:00 5.6 °C 4.9 °C 991.5 hPa West 9.7 km/h 12.9 km/h 95% 0.5 mm 0 W/m2
20:05 5.6 °C 4.9 °C 991.5 hPa West 6.4 km/h 8 km/h 95% 0.2 mm 0 W/m2
20:10 5.6 °C 4.9 °C 991.5 hPa SSW 9.7 km/h 12.9 km/h 95% 0.5 mm 0 W/m2
20:15 5.6 °C 4.9 °C 991.5 hPa West 4.7 km/h 9.7 km/h 95% 0.5 mm 0 W/m2
20:20 5.5 °C 4.8 °C 991.5 hPa WSW 6.4 km/h 14.5 km/h 95% 0.5 mm 0 W/m2
20:25 5.5 °C 4.8 °C 991.5 hPa WNW 4.7 km/h 9.7 km/h 95% 0.5 mm 0 W/m2
20:30 5.5 °C 4.8 °C 991.5 hPa NW 4.7 km/h 14.5 km/h 95% 0.5 mm 0 W/m2
20:35 5.6 °C 4.9 °C 991.5 hPa West 9.7 km/h 12.9 km/h 95% 0.2 mm 0 W/m2
20:40 5.6 °C 4.9 °C 991.9 hPa WNW 4.7 km/h 14.5 km/h 95% 0.2 mm 0 W/m2
20:45 5.6 °C 4.9 °C 991.9 hPa West 9.7 km/h 17.7 km/h 95% 0.2 mm 0 W/m2
20:50 5.6 °C 4.9 °C 992.2 hPa WNW 4.7 km/h 12.9 km/h 95% 0.2 mm 0 W/m2
20:55 5.6 °C 4.9 °C 992.2 hPa West 16.3 km/h 22.5 km/h 95% 0.2 mm 0 W/m2
21:00 5.6 °C 4.9 °C 992.2 hPa WSW 11.1 km/h 19.3 km/h 95% 0.2 mm 0 W/m2
21:05 5.7 °C 4.8 °C 992.2 hPa West 9.7 km/h 22.5 km/h 94% 0.2 mm 0 W/m2
21:10 5.7 °C 4.8 °C 992.5 hPa WNW 4.7 km/h 11.3 km/h 94% 0.0 mm 0 W/m2
21:16 5.7 °C 4.8 °C 992.5 hPa NW 3.2 km/h 16.1 km/h 94% 0.0 mm 0 W/m2
21:21 5.8 °C 4.9 °C 992.9 hPa WNW 6.4 km/h 11.3 km/h 94% 0.0 mm 0 W/m2
21:26 5.8 °C 4.9 °C 992.9 hPa West 4.7 km/h 16.1 km/h 94% 0.0 mm 0 W/m2
21:31 5.8 °C 4.9 °C 992.9 hPa West 11.1 km/h 22.5 km/h 94% 0.0 mm 0 W/m2
21:36 5.9 °C 5 °C 992.9 hPa WNW 3.2 km/h 6.4 km/h 94% 0.0 mm 0 W/m2
21:41 5.8 °C 4.9 °C 993.2 hPa WSW 4.7 km/h 22.5 km/h 94% 0.0 mm 0 W/m2
21:46 5.9 °C 5 °C 993.2 hPa West 9.7 km/h 14.5 km/h 94% 0.0 mm 0 W/m2
21:51 5.9 °C 4.9 °C 993.2 hPa West 11.1 km/h 20.9 km/h 93% 0.0 mm 0 W/m2
21:56 5.9 °C 4.9 °C 993.6 hPa WSW 11.1 km/h 16.1 km/h 93% 0.0 mm 0 W/m2
22:01 5.9 °C 4.9 °C 993.6 hPa WNW 7.9 km/h 11.3 km/h 93% 0.0 mm 0 W/m2
22:06 5.9 °C 4.9 °C 993.6 hPa NW 11.1 km/h 22.5 km/h 93% 0.0 mm 0 W/m2
22:11 6 °C 5 °C 993.6 hPa West 13 km/h 14.5 km/h 93% 0.0 mm 0 W/m2
22:16 6 °C 5.1 °C 993.9 hPa WNW 7.9 km/h 22.5 km/h 94% 0.0 mm 0 W/m2
22:21 6 °C 5.1 °C 993.9 hPa WSW 7.9 km/h 12.9 km/h 94% 0.0 mm 0 W/m2
22:26 6.1 °C 5.2 °C 994.2 hPa WSW 6.4 km/h 22.5 km/h 94% 0.0 mm 0 W/m2
22:31 6.1 °C 5.1 °C 994.2 hPa WSW 9.7 km/h 27.4 km/h 93% 0.2 mm 0 W/m2
22:36 6.2 °C 5.2 °C 994.6 hPa NW 17.7 km/h 17.7 km/h 93% 0.2 mm 0 W/m2
22:41 6.1 °C 4.9 °C 994.6 hPa West 14.3 km/h 20.9 km/h 92% 0.2 mm 0 W/m2
22:46 6 °C 4.8 °C 994.9 hPa West 16.3 km/h 25.7 km/h 92% 0.2 mm 0 W/m2
22:51 5.9 °C 4.5 °C 994.9 hPa West 11.1 km/h 20.9 km/h 91% 0.2 mm 0 W/m2
22:56 5.8 °C 4.4 °C 994.9 hPa WNW 28.8 km/h 32.2 km/h 91% 0.2 mm 0 W/m2
23:01 5.8 °C 4.4 °C 995.3 hPa West 16.3 km/h 20.9 km/h 91% 0.2 mm 0 W/m2
23:06 5.8 °C 4.4 °C 995.3 hPa West 14.3 km/h 32.2 km/h 91% 0.2 mm 0 W/m2
23:11 5.8 °C 4.3 °C 995.6 hPa WSW 13 km/h 17.7 km/h 90% 0.2 mm 0 W/m2
23:16 5.8 °C 4.3 °C 995.6 hPa West 6.4 km/h 32.2 km/h 90% 0.2 mm 0 W/m2
23:21 5.7 °C 4.2 °C 995.9 hPa WNW 19.5 km/h 22.5 km/h 90% 0.2 mm 0 W/m2
23:26 5.7 °C 4.2 °C 995.9 hPa NW 25.9 km/h 33.8 km/h 90% 0.2 mm 0 W/m2
23:31 5.7 °C 4 °C 995.9 hPa West 27.4 km/h 27.4 km/h 89% 0.0 mm 0 W/m2
23:36 5.7 °C 3.9 °C 996.3 hPa West 20.9 km/h 33.8 km/h 88% 0.0 mm 0 W/m2
23:41 5.6 °C 3.8 °C 996.6 hPa WNW 22.7 km/h 29 km/h 88% 0.0 mm 0 W/m2
23:46 5.5 °C 3.5 °C 996.6 hPa NW 19.5 km/h 27.4 km/h 87% 0.0 mm 0 W/m2
23:51 5.4 °C 3.4 °C 996.6 hPa West 20.9 km/h 22.5 km/h 87% 0.0 mm 0 W/m2
23:56 5.3 °C 3.1 °C 996.6 hPa NW 20.9 km/h 20.9 km/h 86% 0.0 mm 0 W/m2
Juneau County Weather
Compliments of Weather Underground - 4 mb